Time;durP1;ratioP1;P1;durP2;ratioP2;P2;SDS_P1;SDS_P2;PMS_P1;PMS_P2;Temp;Humidity;BMP_temperature;BMP_pressure;BME280_temperature;BME280_humidity;BME280_pressure;Samples;Min_cycle;Max_cycle;Signal;HPM_P1;HPM_P2
2022/09/05 00:00:54;;;;;;;4.93;3.08;;;14.60;99.90;;;;;;4991758;28;19929;-47
2022/09/05 00:03:46;;;;;;;6.07;3.50;;;14.60;99.90;;;;;;4990824;28;20046;-49
2022/09/05 00:06:15;;;;;;;9.52;3.65;;;14.60;99.90;;;;;;4992006;28;20050;-48
2022/09/05 00:09:03;;;;;;;6.72;3.30;;;14.60;99.90;;;;;;4995240;28;20045;-49
2022/09/05 00:11:48;;;;;;;8.05;2.88;;;14.50;99.90;;;;;;5011106;28;20529;-49
2022/09/05 00:14:49;;;;;;;9.23;2.70;;;14.40;99.90;;;;;;5010965;28;20042;-47
2022/09/05 00:18:19;;;;;;;4.68;3.33;;;14.20;99.90;;;;;;5001835;22;20096;-46
2022/09/05 00:25:24;;;;;;;6.43;3.03;;;14.00;99.90;;;;;;5012810;28;20096;-45
2022/09/05 00:28:00;;;;;;;4.82;2.80;;;14.00;99.90;;;;;;5008706;28;20058;-45
2022/09/05 00:31:32;;;;;;;5.00;2.42;;;14.00;99.90;;;;;;5024752;28;20154;-45
2022/09/05 00:34:52;;;;;;;4.15;3.15;;;13.90;99.90;;;;;;5038220;28;20494;-45
2022/09/05 00:37:35;;;;;;;6.00;2.88;;;13.80;99.90;;;;;;5023098;28;20045;-45
2022/09/05 00:40:13;;;;;;;5.53;3.05;;;13.80;99.90;;;;;;5029059;28;20042;-45
2022/09/05 00:42:48;;;;;;;4.95;3.20;;;13.90;99.90;;;;;;5013523;28;20046;-45
2022/09/05 00:45:26;;;;;;;5.40;3.20;;;13.90;99.90;;;;;;5013304;28;20430;-45
2022/09/05 00:48:14;;;;;;;5.57;3.20;;;13.90;99.90;;;;;;5031299;28;20037;-45
2022/09/05 00:51:01;;;;;;;7.78;3.13;;;14.00;99.90;;;;;;5004015;28;20053;-45
2022/09/05 00:54:02;;;;;;;12.67;3.07;;;13.90;99.90;;;;;;5044295;28;20045;-45
2022/09/05 00:56:40;;;;;;;4.90;3.28;;;13.90;99.90;;;;;;5038727;28;20037;-46
2022/09/05 00:59:44;;;;;;;3.30;2.80;;;13.90;99.90;;;;;;5058086;28;20036;-45
2022/09/05 01:02:30;;;;;;;5.43;2.72;;;13.90;99.90;;;;;;5040250;28;20037;-45
2022/09/05 01:05:26;;;;;;;9.02;2.78;;;13.90;99.90;;;;;;5069401;28;20056;-45
2022/09/05 01:08:12;;;;;;;4.55;3.33;;;13.90;99.90;;;;;;5074474;28;20056;-45
2022/09/05 01:10:51;;;;;;;5.72;3.15;;;13.90;99.90;;;;;;5055262;28;20436;-45
2022/09/05 01:13:53;;;;;;;4.32;3.33;;;13.90;99.90;;;;;;5037251;28;20056;-45
2022/09/05 01:16:54;;;;;;;5.88;3.40;;;13.90;99.90;;;;;;5071852;28;20032;-45
2022/09/05 01:19:26;;;;;;;7.65;2.92;;;13.90;99.90;;;;;;5074255;28;20052;-45
2022/09/05 01:22:29;;;;;;;5.13;2.78;;;13.80;99.90;;;;;;5065385;28;20096;-46
2022/09/05 01:25:37;;;;;;;6.93;2.72;;;13.80;99.90;;;;;;5040951;28;20404;-45
2022/09/05 01:28:24;;;;;;;6.43;2.75;;;13.70;99.90;;;;;;5053802;28;20052;-45
2022/09/05 01:31:31;;;;;;;4.25;2.95;;;13.70;99.90;;;;;;5046663;28;20096;-46
2022/09/05 01:34:03;;;;;;;4.75;2.80;;;13.70;99.90;;;;;;5056169;28;20040;-45
2022/09/05 01:37:07;;;;;;;6.28;3.60;;;13.70;99.90;;;;;;5073586;28;20448;-45
2022/09/05 01:40:12;;;;;;;7.65;3.47;;;13.70;99.90;;;;;;5063611;28;20122;-45
2022/09/05 01:42:55;;;;;;;5.23;3.20;;;13.80;99.90;;;;;;5044469;28;20098;-46
2022/09/05 01:45:39;;;;;;;6.07;3.53;;;13.70;99.90;;;;;;5052567;28;20336;-45
2022/09/05 01:48:25;;;;;;;7.15;3.40;;;13.80;99.90;;;;;;5053774;28;20383;-45
2022/09/05 01:51:16;;;;;;;8.13;4.10;;;13.80;99.90;;;;;;5043054;28;20037;-45
2022/09/05 01:54:20;;;;;;;4.40;3.30;;;13.70;99.90;;;;;;5048452;28;20044;-45
2022/09/05 01:57:02;;;;;;;5.45;3.63;;;13.80;99.90;;;;;;5053567;28;20084;-45
2022/09/05 01:59:39;;;;;;;4.65;3.40;;;13.80;99.90;;;;;;5053140;28;20451;-45
2022/09/05 02:02:18;;;;;;;6.65;4.13;;;13.80;99.90;;;;;;5045670;28;20049;-46
2022/09/05 02:05:14;;;;;;;7.30;3.90;;;13.70;99.90;;;;;;5072991;28;20040;-45
2022/09/05 02:08:28;;;;;;;6.60;3.30;;;13.70;99.90;;;;;;5056963;28;20037;-45
2022/09/05 02:11:11;;;;;;;7.38;3.97;;;13.70;99.90;;;;;;5048555;28;20107;-45
2022/09/05 02:14:16;;;;;;;6.25;3.72;;;13.70;99.90;;;;;;5052249;28;20056;-46
2022/09/05 02:17:11;;;;;;;6.82;3.20;;;13.80;99.90;;;;;;5012708;28;20045;-45
2022/09/05 02:20:24;;;;;;;4.90;3.63;;;13.80;99.90;;;;;;5048585;28;20448;-46
2022/09/05 02:23:08;;;;;;;5.80;3.55;;;13.80;99.90;;;;;;5052300;28;20049;-45
2022/09/05 02:26:06;;;;;;;4.90;3.40;;;13.70;99.90;;;;;;5072844;28;20087;-45
2022/09/05 02:28:59;;;;;;;5.28;3.75;;;13.70;99.90;;;;;;5071871;28;20047;-45
2022/09/05 02:31:32;;;;;;;5.75;3.30;;;13.70;99.90;;;;;;5073205;28;20076;-45
2022/09/05 02:34:11;;;;;;;8.52;3.97;;;13.60;99.90;;;;;;5043042;28;20088;-46
2022/09/05 02:36:59;;;;;;;6.43;3.95;;;13.50;99.90;;;;;;5045657;28;20052;-45
2022/09/05 02:39:36;;;;;;;5.82;3.45;;;13.50;99.90;;;;;;5052635;28;20476;-46
2022/09/05 02:42:50;;;;;;;3.67;3.13;;;13.40;99.90;;;;;;5052534;28;20069;-45
2022/09/05 02:46:13;;;;;;;6.97;3.15;;;13.30;99.90;;;;;;5036530;28;20066;-45
2022/09/05 02:49:05;;;;;;;5.07;3.10;;;13.20;99.90;;;;;;5052176;28;20053;-45
2022/09/05 02:52:06;;;;;;;8.57;3.40;;;13.10;99.90;;;;;;5039045;28;20115;-45
2022/09/05 02:54:54;;;;;;;7.03;3.75;;;13.10;99.90;;;;;;5051261;28;20119;-45
2022/09/05 02:58:18;;;;;;;6.75;3.65;;;13.10;99.90;;;;;;5031391;28;20099;-45
2022/09/05 03:01:00;;;;;;;7.50;3.90;;;13.20;99.90;;;;;;5044086;28;20121;-45
2022/09/05 03:03:38;;;;;;;7.53;3.58;;;13.20;99.90;;;;;;5050640;28;20044;-45
2022/09/05 03:06:38;;;;;;;8.38;3.58;;;13.30;99.90;;;;;;5047634;28;20410;-45
2022/09/05 03:09:23;;;;;;;;;;;13.30;99.90;;;;;;5031811;28;20100;-45
2022/09/05 03:11:56;;;;;;;5.90;3.85;;;13.30;99.90;;;;;;5045746;28;19921;-45
2022/09/05 03:14:43;;;;;;;7.78;3.28;;;13.20;99.90;;;;;;5051372;28;20045;-45
2022/09/05 03:17:52;;;;;;;5.57;3.40;;;13.10;99.90;;;;;;5042931;28;20068;-45
2022/09/05 03:20:31;;;;;;;5.13;3.47;;;13.10;99.90;;;;;;5043659;28;20644;-45
2022/09/05 03:23:16;;;;;;;5.78;3.88;;;13.10;99.90;;;;;;5071741;28;20054;-46
2022/09/05 03:26:05;;;;;;;6.20;2.78;;;13.00;99.90;;;;;;5037633;28;20087;-45
2022/09/05 03:29:04;;;;;;;7.47;3.25;;;13.00;99.90;;;;;;5051117;28;20041;-45
2022/09/05 03:31:38;;;;;;;6.30;3.53;;;13.00;99.90;;;;;;5048564;28;20049;-45
2022/09/05 03:34:56;;;;;;;8.73;4.03;;;13.00;99.90;;;;;;5049567;28;20048;-45
2022/09/05 03:38:00;;;;;;;5.68;3.10;;;13.00;99.90;;;;;;5022656;28;20076;-46
2022/09/05 03:40:36;;;;;;;5.38;3.30;;;12.90;99.90;;;;;;5039410;28;20052;-45
2022/09/05 03:43:41;;;;;;;6.50;4.03;;;12.90;99.90;;;;;;5038149;28;20053;-46
2022/09/05 03:46:14;;;;;;;5.95;3.95;;;12.90;99.90;;;;;;5048169;28;20052;-45
2022/09/05 03:49:14;;;;;;;6.22;4.05;;;13.00;99.90;;;;;;5050638;28;20084;-45
2022/09/05 03:52:18;;;;;;;6.82;4.13;;;13.00;99.90;;;;;;5032453;28;20065;-45
2022/09/05 03:55:34;;;;;;;6.07;3.92;;;13.10;99.90;;;;;;5026515;28;20041;-45
2022/09/05 03:58:51;;;;;;;10.38;4.40;;;13.20;99.90;;;;;;5040953;28;20099;-46
2022/09/05 04:01:43;;;;;;;6.70;4.45;;;13.20;99.90;;;;;;5040633;28;20042;-46
2022/09/05 04:04:41;;;;;;;7.65;4.57;;;13.20;99.90;;;;;;5036218;28;20095;-45
2022/09/05 04:07:52;;;;;;;6.65;4.15;;;13.20;99.90;;;;;;5049029;28;20103;-45
2022/09/05 04:10:44;;;;;;;6.60;4.13;;;13.20;99.90;;;;;;5035268;28;20045;-45
2022/09/05 04:13:25;;;;;;;6.22;4.40;;;13.20;99.90;;;;;;5047141;28;20041;-45
2022/09/05 04:16:10;;;;;;;5.97;4.13;;;13.20;99.90;;;;;;5049780;28;20051;-45
2022/09/05 04:18:43;;;;;;;9.15;4.40;;;13.20;99.90;;;;;;5044664;28;20044;-47
2022/09/05 04:21:28;;;;;;;6.10;3.85;;;13.30;99.90;;;;;;5040718;28;20560;-46
2022/09/05 04:24:00;;;;;;;6.90;3.30;;;13.30;99.90;;;;;;5041228;28;20037;-45
2022/09/05 04:26:46;;;;;;;6.10;2.83;;;13.20;99.90;;;;;;5041878;28;20045;-45
2022/09/05 04:29:21;;;;;;;6.57;3.15;;;13.10;99.90;;;;;;5042194;28;20052;-45
2022/09/05 04:32:07;;;;;;;4.90;3.10;;;13.10;99.90;;;;;;5046809;28;20103;-45
2022/09/05 04:35:03;;;;;;;7.18;4.43;;;13.00;99.90;;;;;;5044556;28;20072;-46
2022/09/05 04:37:44;;;;;;;8.15;4.10;;;13.00;99.90;;;;;;5040768;28;20099;-45
2022/09/05 04:40:39;;;;;;;7.22;4.25;;;13.10;99.90;;;;;;5039082;28;20075;-45
2022/09/05 04:43:24;;;;;;;6.80;4.43;;;13.10;99.90;;;;;;5045716;28;20493;-48
2022/09/05 04:46:05;;;;;;;9.00;4.63;;;13.20;99.90;;;;;;5047331;28;20045;-45
2022/09/05 04:48:41;;;;;;;6.93;4.00;;;13.30;99.90;;;;;;5047583;28;20069;-46
2022/09/05 04:51:28;;;;;;;8.15;4.22;;;13.20;99.90;;;;;;5045287;28;20116;-45
2022/09/05 04:54:29;;;;;;;6.93;3.38;;;13.20;99.90;;;;;;5045566;28;20432;-45
2022/09/05 04:57:19;;;;;;;;;;;13.20;99.90;;;;;;5048784;28;20088;-45
2022/09/05 04:59:46;;;;;;;;;;;13.10;99.90;;;;;;5007921;28;20341;-45
2022/09/05 05:02:46;;;;;;;6.15;3.60;;;13.20;99.90;;;;;;5042492;28;20329;-45
2022/09/05 05:05:48;;;;;;;7.82;3.42;;;13.20;99.90;;;;;;5038099;28;20096;-46
2022/09/05 05:08:51;;;;;;;10.63;3.50;;;13.20;99.90;;;;;;5036377;28;20073;-45
2022/09/05 05:11:36;;;;;;;6.53;3.65;;;13.10;99.90;;;;;;5039577;28;20449;-45
2022/09/05 05:14:31;;;;;;;10.88;3.95;;;13.10;99.90;;;;;;5047844;28;20049;-46
2022/09/05 05:17:39;;;;;;;7.55;4.13;;;13.10;99.90;;;;;;5042831;28;20045;-45
2022/09/05 05:20:40;;;;;;;7.50;4.18;;;13.20;99.90;;;;;;5054065;28;20052;-46
2022/09/05 05:23:18;;;;;;;5.72;3.83;;;13.30;99.90;;;;;;5046352;28;20038;-47
2022/09/05 05:25:53;;;;;;;7.20;4.05;;;13.30;99.90;;;;;;5040043;28;20045;-46
2022/09/05 05:28:42;;;;;;;8.85;4.55;;;13.40;99.90;;;;;;5058958;28;20048;-45
2022/09/05 05:31:37;;;;;;;6.72;4.32;;;13.60;99.90;;;;;;5045347;28;20076;-45
2022/09/05 05:34:31;;;;;;;6.05;3.95;;;13.70;99.90;;;;;;5045866;28;20059;-45
2022/09/05 05:37:13;;;;;;;8.45;4.50;;;13.80;99.90;;;;;;5035175;28;20456;-45
2022/09/05 05:39:46;;;;;;;6.60;4.25;;;13.80;99.90;;;;;;5052049;28;20132;-46
2022/09/05 05:42:19;;;;;;;6.03;3.97;;;13.90;99.90;;;;;;5043048;28;20045;-45
2022/09/05 05:44:57;;;;;;;8.23;4.18;;;13.90;99.90;;;;;;5047919;28;20044;-45
2022/09/05 05:47:29;;;;;;;7.85;4.32;;;14.00;99.90;;;;;;5045616;28;20056;-45
2022/09/05 05:50:00;;;;;;;5.32;4.38;;;14.10;99.90;;;;;;5052492;28;20124;-46
2022/09/05 05:52:56;;;;;;;7.30;4.13;;;14.10;99.90;;;;;;5052849;28;20161;-45
2022/09/05 05:55:28;;;;;;;7.50;4.00;;;14.20;99.90;;;;;;5035011;28;20056;-45
2022/09/05 05:58:43;;;;;;;8.75;3.67;;;14.20;99.90;;;;;;5043285;28;20367;-45
2022/09/05 06:01:48;;;;;;;5.25;3.78;;;14.20;99.90;;;;;;5041335;28;20045;-45
2022/09/05 06:04:38;;;;;;;7.07;5.00;;;14.20;99.90;;;;;;5052834;28;20462;-45
2022/09/05 06:07:36;;;;;;;5.72;3.58;;;14.30;99.90;;;;;;5052765;28;20048;-45
2022/09/05 06:10:44;;;;;;;9.27;4.05;;;14.40;99.90;;;;;;5040631;28;20509;-46
2022/09/05 06:14:06;;;;;;;7.47;3.70;;;14.50;99.90;;;;;;5052867;28;20497;-45
2022/09/05 06:17:17;;;;;;;8.13;3.45;;;14.60;99.90;;;;;;5053245;28;20086;-45
2022/09/05 06:20:20;;;;;;;4.30;3.40;;;14.70;99.90;;;;;;5060840;23;20044;-48
2022/09/05 06:23:33;;;;;;;5.40;3.38;;;14.80;99.90;;;;;;5064374;28;20462;-48
2022/09/05 06:26:41;;;;;;;5.97;3.65;;;14.90;99.90;;;;;;5052446;28;20103;-49
2022/09/05 06:29:23;;;;;;;4.57;2.90;;;15.00;99.90;;;;;;5026863;28;20061;-51
2022/09/05 06:32:23;;;;;;;6.95;3.42;;;15.10;99.90;;;;;;5052917;28;20049;-50
2022/09/05 06:35:15;;;;;;;4.82;3.35;;;15.10;99.90;;;;;;5052580;28;20452;-51
2022/09/05 06:38:23;;;;;;;5.57;3.35;;;15.20;99.90;;;;;;5035012;28;20049;-48
2022/09/05 06:41:25;;;;;;;5.43;3.55;;;15.30;99.90;;;;;;5063465;28;20041;-49
2022/09/05 06:44:01;;;;;;;6.50;3.35;;;15.40;99.90;;;;;;5070920;28;20047;-48
2022/09/05 06:46:33;;;;;;;8.25;3.30;;;15.50;99.90;;;;;;5071588;28;20115;-51
2022/09/05 06:49:34;;;;;;;6.60;3.42;;;15.50;99.90;;;;;;5071646;28;20048;-47
2022/09/05 06:52:36;;;;;;;8.18;3.45;;;15.40;99.90;;;;;;5072780;28;20123;-50
2022/09/05 06:55:33;;;;;;;5.90;3.40;;;15.50;99.90;;;;;;5065160;28;20052;-47
2022/09/05 06:58:35;;;;;;;5.18;3.35;;;15.70;99.90;;;;;;5071709;28;20448;-50
2022/09/05 07:01:05;;;;;;;4.93;3.45;;;15.80;99.90;;;;;;5044491;28;20064;-49
2022/09/05 07:03:46;;;;;;;4.85;3.33;;;15.80;99.90;;;;;;5038348;28;20378;-51
2022/09/05 07:06:48;;;;;;;5.95;3.08;;;15.70;99.90;;;;;;5052396;28;20507;-47
2022/09/05 07:09:51;;;;;;;8.32;3.38;;;15.80;99.90;;;;;;5062631;28;20126;-51
2022/09/05 07:12:28;;;;;;;3.65;2.63;;;16.00;99.90;;;;;;5071016;28;20048;-48
2022/09/05 07:15:29;;;;;;;4.28;3.33;;;16.30;99.90;;;;;;5070791;28;20048;-51
2022/09/05 07:18:20;;;;;;;6.40;3.50;;;16.60;99.90;;;;;;5063808;28;20444;-51
2022/09/05 07:20:56;;;;;;;10.05;3.35;;;16.80;99.90;;;;;;5071931;28;20049;-48
2022/09/05 07:23:52;;;;;;;5.13;3.17;;;17.00;99.90;;;;;;5067781;28;20048;-50
2022/09/05 07:26:45;;;;;;;5.35;2.95;;;17.00;99.90;;;;;;5056303;28;20037;-50
2022/09/05 07:29:29;;;;;;;5.45;2.97;;;17.10;99.90;;;;;;5070977;28;20052;-47
2022/09/05 07:31:59;;;;;;;6.93;3.20;;;17.00;99.90;;;;;;5071665;28;20048;-48
2022/09/05 07:34:32;;;;;;;6.57;2.83;;;17.00;99.90;;;;;;5058048;28;20052;-48
2022/09/05 07:37:07;;;;;;;4.68;3.33;;;17.20;99.90;;;;;;5062478;28;20067;-51
2022/09/05 07:39:58;;;;;;;5.13;3.08;;;17.40;99.90;;;;;;5068557;28;20094;-49
2022/09/05 07:43:09;;;;;;;7.55;3.28;;;17.60;99.90;;;;;;5058779;28;20055;-48
2022/09/05 07:45:43;;;;;;;4.35;2.75;;;17.70;99.90;;;;;;5070127;28;20040;-51
2022/09/05 07:48:27;;;;;;;4.35;3.13;;;17.80;99.90;;;;;;5071251;28;20040;-48
2022/09/05 07:51:05;;;;;;;7.95;3.15;;;17.80;99.90;;;;;;5067018;28;20459;-52
2022/09/05 07:53:57;;;;;;;6.28;3.20;;;17.80;99.90;;;;;;5031208;28;20095;-51
2022/09/05 07:57:02;;;;;;;4.13;2.95;;;17.90;99.90;;;;;;5031564;28;20045;-50
2022/09/05 07:59:53;;;;;;;4.53;3.00;;;18.00;99.90;;;;;;5048677;28;20098;-48
2022/09/05 08:02:20;;;;;;;4.97;3.05;;;18.10;99.90;;;;;;5049353;28;20052;-48
2022/09/05 08:04:47;;;;;;;7.47;3.08;;;18.30;99.90;;;;;;5050246;28;20041;-51
2022/09/05 08:07:20;;;;;;;7.93;3.15;;;18.40;99.90;;;;;;5050621;28;20124;-50
2022/09/05 08:10:11;;;;;;;3.47;2.95;;;18.50;99.90;;;;;;5064611;28;20055;-48
2022/09/05 08:13:01;;;;;;;3.72;2.78;;;18.50;99.90;;;;;;5070560;28;20098;-52
2022/09/05 08:15:52;;;;;;;4.40;2.90;;;18.60;99.90;;;;;;5066617;28;20044;-48
2022/09/05 08:18:49;;;;;;;6.28;2.97;;;18.70;99.90;;;;;;5047597;28;20044;-49
2022/09/05 08:21:39;;;;;;;5.60;3.47;;;18.90;99.90;;;;;;5050777;28;20040;-51
2022/09/05 08:24:42;;;;;;;3.67;2.58;;;19.10;99.90;;;;;;5048424;28;20037;-50
2022/09/05 08:27:12;;;;;;;5.47;3.13;;;19.30;99.90;;;;;;5070996;28;20052;-47
2022/09/05 08:29:59;;;;;;;3.30;2.72;;;19.40;99.90;;;;;;5070012;28;20504;-51
2022/09/05 08:33:09;;;;;;;3.55;3.00;;;19.50;99.90;;;;;;5054687;28;20052;-47
2022/09/05 08:35:47;;;;;;;6.72;3.20;;;19.60;99.90;;;;;;5063179;28;20050;-51
2022/09/05 08:38:16;;;;;;;4.60;3.03;;;19.70;99.90;;;;;;5071059;28;20063;-52
2022/09/05 08:41:05;;;;;;;4.82;3.10;;;19.80;99.90;;;;;;5059814;28;20507;-48
2022/09/05 08:43:33;;;;;;;;;;;19.80;99.90;;;;;;5050398;28;20043;-50
2022/09/05 08:46:28;;;;;;;6.18;2.90;;;19.80;99.90;;;;;;5061561;28;19970;-48
2022/09/05 08:49:48;;;;;;;3.80;2.60;;;19.90;99.90;;;;;;5050030;28;20033;-48
2022/09/05 08:52:25;;;;;;;7.45;3.05;;;20.10;99.90;;;;;;5061956;28;20052;-49
2022/09/05 08:55:03;;;;;;;4.43;2.95;;;20.20;99.90;;;;;;5059182;28;20056;-49
2022/09/05 08:57:57;;;;;;;2.78;2.20;;;20.30;99.90;;;;;;5054306;28;20549;-49
2022/09/05 09:00:26;;;;;;;3.83;3.00;;;20.20;99.90;;;;;;5072580;28;20045;-50
2022/09/05 09:03:21;;;;;;;3.58;2.92;;;20.10;99.90;;;;;;5066047;28;20033;-50
2022/09/05 09:05:56;;;;;;;4.68;2.70;;;20.10;99.90;;;;;;5063114;28;20033;-50
2022/09/05 09:09:09;;;;;;;3.78;2.80;;;20.10;99.90;;;;;;5052300;28;20625;-49
2022/09/05 09:11:53;;;;;;;3.63;2.72;;;20.30;99.90;;;;;;5056710;28;20489;-51
2022/09/05 09:14:30;;;;;;;4.65;2.67;;;20.60;99.90;;;;;;5067324;28;20045;-48
2022/09/05 09:17:20;;;;;;;4.85;2.60;;;20.60;99.90;;;;;;5053636;28;20048;-50
2022/09/05 09:20:12;;;;;;;4.80;3.40;;;20.80;99.90;;;;;;5053399;28;20544;-48
2022/09/05 09:23:13;;;;;;;5.15;2.95;;;20.90;99.90;;;;;;5053969;28;20045;-51
2022/09/05 09:26:14;;;;;;;3.50;3.20;;;21.00;99.90;;;;;;5067796;28;20044;-50
2022/09/05 09:28:47;;;;;;;4.13;2.80;;;21.30;99.90;;;;;;5073388;28;20106;-52
2022/09/05 09:31:41;;;;;;;3.15;2.55;;;21.50;99.90;;;;;;5073924;28;20626;-50
2022/09/05 09:34:24;;;;;;;3.92;2.92;;;21.50;99.90;;;;;;5059848;28;20033;-49
2022/09/05 09:37:07;;;;;;;4.63;2.47;;;21.60;99.90;;;;;;5054014;28;20044;-49
2022/09/05 09:39:58;;;;;;;4.68;2.70;;;21.80;99.90;;;;;;5053776;28;20037;-49
2022/09/05 09:42:34;;;;;;;6.35;2.78;;;21.90;99.90;;;;;;5072132;28;20051;-51
2022/09/05 09:45:20;;;;;;;5.28;2.85;;;22.00;99.90;;;;;;5072550;28;20052;-48
2022/09/05 09:48:15;;;;;;;2.92;2.60;;;22.20;99.90;;;;;;5074006;28;20304;-51
2022/09/05 09:50:54;;;;;;;5.45;2.55;;;22.00;99.90;;;;;;5055618;28;20048;-49
2022/09/05 09:53:33;;;;;;;4.05;2.67;;;21.90;99.90;;;;;;5053495;28;20045;-51
2022/09/05 09:56:45;;;;;;;5.45;2.80;;;22.00;99.90;;;;;;5053725;28;20049;-48
2022/09/05 09:59:28;;;;;;;4.53;2.88;;;22.00;99.90;;;;;;5060881;28;20499;-51
2022/09/05 10:02:14;;;;;;;2.97;2.55;;;22.00;99.90;;;;;;5054955;28;20049;-50
2022/09/05 10:05:13;;;;;;;4.20;2.97;;;22.10;99.90;;;;;;5069529;28;20041;-48
2022/09/05 10:08:24;;;;;;;;;;;22.40;99.90;;;;;;5049642;28;20413;-49
2022/09/05 10:11:17;;;;;;;4.47;2.97;;;22.40;99.90;;;;;;5052438;28;19924;-50
2022/09/05 10:14:21;;;;;;;4.10;2.53;;;22.50;99.90;;;;;;5052574;28;20110;-49
2022/09/05 10:17:29;;;;;;;4.07;2.92;;;22.80;99.90;;;;;;5059813;28;20036;-50
2022/09/05 10:20:34;;;;;;;3.65;2.92;;;22.90;99.90;;;;;;5073290;28;20086;-48
2022/09/05 10:23:12;;;;;;;5.15;3.10;;;23.00;99.90;;;;;;5058636;28;20067;-51
2022/09/05 10:25:57;;;;;;;3.30;2.75;;;23.00;99.90;;;;;;5063716;28;20378;-48
2022/09/05 10:28:50;;;;;;;3.35;2.95;;;23.00;99.90;;;;;;5053042;28;20493;-51
2022/09/05 10:31:20;;;;;;;4.75;2.60;;;23.20;99.90;;;;;;5052941;28;20049;-49
2022/09/05 10:34:17;;;;;;;5.40;3.08;;;23.30;99.90;;;;;;5051111;28;20131;-48
2022/09/05 10:37:11;;;;;;;3.97;2.88;;;23.30;99.90;;;;;;5070277;28;20138;-50
2022/09/05 10:39:42;;;;;;;3.38;3.00;;;23.40;99.90;;;;;;5056997;28;20515;-51
2022/09/05 10:42:28;;;;;;;5.68;3.00;;;23.50;99.90;;;;;;5059404;28;20382;-50
2022/09/05 10:44:57;;;;;;;5.65;3.00;;;23.50;99.90;;;;;;5051989;28;20090;-48
2022/09/05 10:48:04;;;;;;;4.18;2.78;;;23.40;99.90;;;;;;5052062;28;20107;-52
2022/09/05 10:50:43;;;;;;;7.30;3.00;;;23.30;99.90;;;;;;5055485;28;20040;-50
2022/09/05 10:53:40;;;;;;;4.88;2.70;;;23.40;99.90;;;;;;5054683;28;20059;-51
2022/09/05 10:56:21;;;;;;;3.92;2.78;;;23.50;99.90;;;;;;5072073;28;20048;-50
2022/09/05 10:59:07;;;;;;;3.03;2.83;;;23.60;99.90;;;;;;5064092;28;20601;-51
2022/09/05 11:02:05;;;;;;;6.70;2.90;;;23.70;99.90;;;;;;5062251;28;20040;-49
2022/09/05 11:05:10;;;;;;;4.22;2.70;;;23.90;99.90;;;;;;5071521;28;20566;-48
2022/09/05 11:07:53;;;;;;;3.85;2.75;;;24.00;99.90;;;;;;5069011;28;20409;-48
2022/09/05 11:10:34;;;;;;;5.20;2.53;;;24.20;99.90;;;;;;5070499;28;20055;-50
2022/09/05 11:13:09;;;;;;;6.85;2.47;;;24.10;99.90;;;;;;5070717;28;20067;-49
2022/09/05 11:15:53;;;;;;;4.20;2.70;;;24.20;99.90;;;;;;5057809;28;20032;-49
2022/09/05 11:18:37;;;;;;;5.68;2.75;;;24.30;99.90;;;;;;5071872;28;20037;-49
2022/09/05 11:21:47;;;;;;;4.03;2.65;;;24.50;99.90;;;;;;5071881;28;20036;-51
2022/09/05 11:24:47;;;;;;;4.10;2.60;;;24.70;99.90;;;;;;5054118;28;20037;-49
2022/09/05 11:27:34;;;;;;;4.68;3.00;;;24.80;99.90;;;;;;5051916;28;20053;-51
2022/09/05 11:30:05;;;;;;;2.80;2.57;;;25.00;99.90;;;;;;5051682;28;20064;-49
2022/09/05 11:33:00;;;;;;;3.28;2.60;;;25.00;99.90;;;;;;5049766;28;20292;-49
2022/09/05 11:35:53;;;;;;;3.33;3.03;;;25.10;99.90;;;;;;5059179;28;20102;-52
2022/09/05 11:38:58;;;;;;;3.22;2.78;;;25.30;99.90;;;;;;5071325;28;20554;-49
2022/09/05 11:42:00;;;;;;;5.93;2.80;;;25.60;99.90;;;;;;5052317;28;20044;-49
2022/09/05 11:44:46;;;;;;;5.80;2.95;;;25.90;99.90;;;;;;5050583;28;20046;-49
2022/09/05 11:47:49;;;;;;;3.38;2.90;;;26.00;99.90;;;;;;5051454;28;20538;-48
2022/09/05 11:50:37;;;;;;;3.60;2.72;;;26.10;99.90;;;;;;5058773;28;20048;-49
2022/09/05 11:53:39;;;;;;;3.72;2.92;;;26.20;99.90;;;;;;5051150;28;20094;-49
2022/09/05 11:56:28;;;;;;;3.08;2.65;;;26.20;99.90;;;;;;5033057;28;20044;-49
2022/09/05 11:59:33;;;;;;;5.90;2.47;;;26.10;99.90;;;;;;5051440;28;20049;-49
2022/09/05 12:02:31;;;;;;;3.05;2.75;;;26.10;99.90;;;;;;5045935;28;20497;-50
2022/09/05 12:05:22;;;;;;;3.30;2.60;;;26.20;99.90;;;;;;5066678;28;20064;-51
2022/09/05 12:08:28;;;;;;;2.65;2.45;;;26.10;99.90;;;;;;5064410;28;20409;-48
2022/09/05 12:11:16;;;;;;;2.90;2.70;;;26.00;99.90;;;;;;5051258;28;20053;-49
2022/09/05 12:13:55;;;;;;;2.83;2.50;;;25.90;99.90;;;;;;5049992;28;20505;-49
2022/09/05 12:16:28;;;;;;;2.65;2.45;;;25.80;99.90;;;;;;5050412;28;20052;-50
2022/09/05 12:19:15;;;;;;;2.80;2.55;;;25.70;99.90;;;;;;5065228;22;20080;-47
2022/09/05 12:22:12;;;;;;;2.60;2.38;;;25.80;99.90;;;;;;5030277;28;20088;-44
2022/09/05 12:25:09;;;;;;;4.28;2.70;;;25.80;99.90;;;;;;5025255;28;20120;-46
2022/09/05 12:28:06;;;;;;;28.48;3.85;;;25.80;99.90;;;;;;5030971;28;20046;-44
2022/09/05 12:31:16;;;;;;;3.88;2.35;;;25.50;99.90;;;;;;5031466;28;20556;-45
2022/09/05 12:34:08;;;;;;;2.63;2.40;;;25.50;99.90;;;;;;5041786;28;20099;-44
2022/09/05 12:36:56;;;;;;;3.22;2.75;;;25.50;99.90;;;;;;5050851;28;20111;-45
2022/09/05 12:39:47;;;;;;;6.28;2.88;;;25.50;99.90;;;;;;5049587;28;20052;-44
2022/09/05 12:42:51;;;;;;;4.85;3.03;;;25.40;99.90;;;;;;5042659;28;20129;-47
2022/09/05 12:45:49;;;;;;;6.95;3.13;;;25.40;99.90;;;;;;5043960;28;20041;-45
2022/09/05 12:48:25;;;;;;;4.57;2.75;;;25.30;99.90;;;;;;5053096;28;20045;-44
2022/09/05 12:51:20;;;;;;;4.50;2.90;;;25.20;99.90;;;;;;5052348;28;20040;-46
2022/09/05 12:54:14;;;;;;;5.40;2.40;;;25.30;99.90;;;;;;5054013;28;20041;-47
2022/09/05 12:57:02;;;;;;;3.72;2.60;;;25.10;99.90;;;;;;5043407;28;20121;-46
2022/09/05 12:59:50;;;;;;;6.32;2.80;;;24.90;99.90;;;;;;5058658;28;20036;-46
2022/09/05 13:02:42;;;;;;;3.45;2.55;;;25.10;99.90;;;;;;5070605;28;20068;-46
2022/09/05 13:05:44;;;;;;;7.20;3.03;;;25.30;99.90;;;;;;5059276;28;20090;-47
2022/09/05 13:08:19;;;;;;;4.88;2.92;;;25.40;99.90;;;;;;5042219;28;20040;-46
2022/09/05 13:10:56;;;;;;;6.15;2.80;;;25.10;99.90;;;;;;5050630;28;20041;-47
2022/09/05 13:13:59;;;;;;;6.18;2.67;;;24.70;99.90;;;;;;5049692;28;20045;-46
2022/09/05 13:16:49;;;;;;;5.20;2.75;;;24.20;99.90;;;;;;5035566;28;20065;-46
2022/09/05 13:19:42;;;;;;;3.88;2.60;;;23.90;99.90;;;;;;5050291;28;20041;-46
2022/09/05 13:22:13;;;;;;;7.20;2.65;;;23.80;99.90;;;;;;5044219;28;20513;-47
2022/09/05 13:24:44;;;;;;;6.55;2.92;;;24.10;99.90;;;;;;5049806;28;20714;-46
2022/09/05 13:27:15;;;;;;;4.10;2.70;;;24.30;99.90;;;;;;5049380;28;20068;-46
2022/09/05 13:29:52;;;;;;;5.25;2.47;;;24.20;99.90;;;;;;5050294;28;20131;-48
2022/09/05 13:32:50;;;;;;;3.33;2.53;;;24.00;99.90;;;;;;5043422;28;20103;-47
2022/09/05 13:35:48;;;;;;;3.95;2.50;;;23.80;99.90;;;;;;5049638;28;20563;-46
2022/09/05 13:38:50;;;;;;;5.17;2.80;;;23.60;99.90;;;;;;5053959;28;20460;-46
2022/09/05 13:41:29;;;;;;;4.88;2.60;;;23.50;99.90;;;;;;5050612;28;20052;-48
2022/09/05 13:43:58;;;;;;;4.90;2.80;;;23.50;99.90;;;;;;5053435;28;20036;-46
2022/09/05 13:46:58;;;;;;;3.53;2.53;;;23.40;99.90;;;;;;5045650;28;20041;-46
2022/09/05 13:49:43;;;;;;;6.07;2.53;;;23.30;99.90;;;;;;5051557;28;20076;-47
2022/09/05 13:52:19;;;;;;;4.88;2.85;;;23.20;99.90;;;;;;5050233;28;20075;-46
2022/09/05 13:55:01;;;;;;;3.38;2.75;;;23.20;99.90;;;;;;5052914;28;20481;-47
2022/09/05 13:57:43;;;;;;;3.25;2.35;;;23.20;99.90;;;;;;5052670;28;20045;-46
2022/09/05 14:00:14;;;;;;;2.80;2.15;;;23.20;99.90;;;;;;5047690;28;20083;-46
2022/09/05 14:03:07;;;;;;;4.53;2.30;;;23.30;99.90;;;;;;5056890;28;20047;-47
2022/09/05 14:06:20;;;;;;;3.85;2.20;;;23.30;99.90;;;;;;5032179;28;20564;-47
2022/09/05 14:09:35;;;;;;;2.92;2.30;;;23.40;99.90;;;;;;5038063;28;20041;-46
2022/09/05 14:12:24;;;;;;;4.63;2.60;;;23.50;99.90;;;;;;5049634;28;20053;-46
2022/09/05 14:15:12;;;;;;;2.60;2.40;;;23.60;99.90;;;;;;5032816;28;20061;-47
2022/09/05 14:18:14;;;;;;;2.40;2.20;;;23.90;99.90;;;;;;5033562;28;20041;-47
2022/09/05 14:21:15;;;;;;;3.45;2.33;;;24.00;99.90;;;;;;5041392;28;20515;-48
2022/09/05 14:24:10;;;;;;;3.67;2.60;;;24.00;99.90;;;;;;5049425;28;20052;-46
2022/09/05 14:26:44;;;;;;;5.57;2.20;;;24.00;99.90;;;;;;5049796;28;20392;-46
2022/09/05 14:29:23;;;;;;;3.00;2.13;;;23.90;99.90;;;;;;5053006;28;20185;-46
2022/09/05 14:32:22;;;;;;;2.90;2.42;;;23.80;99.90;;;;;;5051997;28;20155;-47
2022/09/05 14:35:11;;;;;;;2.88;2.50;;;23.80;99.90;;;;;;5051140;28;20084;-46
2022/09/05 14:38:01;;;;;;;4.80;1.98;;;23.80;99.90;;;;;;5052778;28;20128;-46
2022/09/05 14:40:57;;;;;;;2.60;2.40;;;23.90;99.90;;;;;;5047928;28;20044;-48
2022/09/05 14:43:48;;;;;;;2.97;2.15;;;23.90;99.90;;;;;;5052737;28;20040;-46
2022/09/05 14:46:34;;;;;;;3.50;2.80;;;24.00;99.90;;;;;;5010102;28;20094;-46
2022/09/05 14:49:43;;;;;;;3.28;2.38;;;24.10;99.90;;;;;;5047380;28;20057;-46
2022/09/05 14:52:19;;;;;;;5.25;2.33;;;24.20;99.90;;;;;;5052587;28;20405;-46